Airfield :
LOGIN :

Register | Disclaimer

   EN    FR    IT 

 










Legend :    VFR   Marginal VFR   IFR   Intensive IFR   Very Intensive IFR
Visi :
Ceiling :
>= 8 km
>= 3000ft
5 to 8 km
1000 to 3000 ft
1500m to 5 km
500 to 1000 ft
800 to 1500m
200 to 500 ft
< 800m
< 200 ft
Symbols :   Thunderstorms  Fog  Heavy snow  Heavy precipitations  Wind > 20 kt
SIGMETs :     Misc.  Thunderstorms  Icing  Turbulence  Mountain Waves  Volcanic Ashes






- Airport Elevation : 407 ft


EGDM - MoD Boscombe Down Amesbury

CURRENT METAR :
  • 131450Z AUTO 22010KT 9999 FEW026/// BKN090/// 18/11 Q1013

EXPIRED METARs :
  • 131420Z AUTO 18009KT 9999 BKN065/// BKN083/// 18/11 Q1013
  • 131350Z AUTO 19010KT 9999 OVC052/// 17/12 Q1013
  • 131320Z AUTO 20006KT 9999 FEW033/// OVC059/// 17/10 Q1013
  • 131250Z AUTO 25004KT 9999 SCT032/// SCT045/// 17/10 Q1014
  • 131220Z AUTO 28003KT 9999 BKN048/// BKN063/// 17/09 Q1014
  • 131150Z AUTO 34008KT 9999 BKN032/// SCT067/// 18/10 Q1014
  • 131120Z AUTO 32004KT 9999 FEW033/// BKN055/// 19/10 Q1014
  • 131050Z AUTO 30004KT 9999 SCT031/// 19/10 Q1014
  • 131020Z AUTO 31004KT 9999 BKN031/// SCT056/// 19/09 Q1014
  • 130950Z AUTO 30007KT 9999 FEW024/// SCT047/// 18/11 Q1014

Expired Forecast.



MET'MAP, your aeronautical weather chart ! - Copyright ORBIFLY December 2007 - Disclaimer

ORBIFLY MET'MAP TEAM :

Programming & Development : Alexandra Zaïnal
Original concept : Baudouin d'Aumeries
Technical & hardware support : Manuel Goepfert
Assistance : Marc-Olivier Méhu




SOURCES & CREDITS :

   NOAA